sensor_id;sensor_type;location;lat;lon;timestamp;P1;durP1;ratioP1;P2;durP2;ratioP2
4122;SDS011;2075;51.062;6.920;2024-01-16T00:01:19;10.60;;;7.60;;
4122;SDS011;2075;51.062;6.920;2024-01-16T00:04:05;11.87;;;7.87;;
4122;SDS011;2075;51.062;6.920;2024-01-16T00:06:53;16.40;;;7.77;;
4122;SDS011;2075;51.062;6.920;2024-01-16T00:09:38;15.83;;;7.10;;
4122;SDS011;2075;51.062;6.920;2024-01-16T00:12:24;15.10;;;7.77;;
4122;SDS011;2075;51.062;6.920;2024-01-16T00:15:09;13.70;;;6.77;;
4122;SDS011;2075;51.062;6.920;2024-01-16T00:17:55;10.90;;;7.43;;
4122;SDS011;2075;51.062;6.920;2024-01-16T00:20:40;12.53;;;7.40;;
4122;SDS011;2075;51.062;6.920;2024-01-16T00:23:27;12.70;;;7.57;;
4122;SDS011;2075;51.062;6.920;2024-01-16T00:26:19;17.00;;;7.40;;
4122;SDS011;2075;51.062;6.920;2024-01-16T00:29:05;13.50;;;8.07;;
4122;SDS011;2075;51.062;6.920;2024-01-16T00:31:50;15.23;;;8.03;;
4122;SDS011;2075;51.062;6.920;2024-01-16T00:34:36;11.53;;;7.67;;
4122;SDS011;2075;51.062;6.920;2024-01-16T00:37:21;17.77;;;8.10;;
4122;SDS011;2075;51.062;6.920;2024-01-16T00:40:09;14.40;;;8.13;;
4122;SDS011;2075;51.062;6.920;2024-01-16T00:42:55;20.73;;;8.00;;
4122;SDS011;2075;51.062;6.920;2024-01-16T00:45:40;12.10;;;8.17;;
4122;SDS011;2075;51.062;6.920;2024-01-16T00:48:26;14.20;;;8.10;;
4122;SDS011;2075;51.062;6.920;2024-01-16T00:51:11;16.80;;;8.67;;
4122;SDS011;2075;51.062;6.920;2024-01-16T00:53:57;13.27;;;9.20;;
4122;SDS011;2075;51.062;6.920;2024-01-16T00:56:44;18.03;;;9.40;;
4122;SDS011;2075;51.062;6.920;2024-01-16T00:59:29;23.63;;;10.50;;
4122;SDS011;2075;51.062;6.920;2024-01-16T01:02:14;17.73;;;10.80;;
4122;SDS011;2075;51.062;6.920;2024-01-16T01:05:00;16.00;;;10.07;;
4122;SDS011;2075;51.062;6.920;2024-01-16T01:07:47;19.37;;;10.00;;
4122;SDS011;2075;51.062;6.920;2024-01-16T01:10:33;13.83;;;9.30;;
4122;SDS011;2075;51.062;6.920;2024-01-16T01:13:20;14.13;;;9.30;;
4122;SDS011;2075;51.062;6.920;2024-01-16T01:16:07;16.47;;;9.90;;
4122;SDS011;2075;51.062;6.920;2024-01-16T01:18:52;17.50;;;9.57;;
4122;SDS011;2075;51.062;6.920;2024-01-16T01:21:38;17.27;;;9.13;;
4122;SDS011;2075;51.062;6.920;2024-01-16T01:24:24;14.60;;;8.83;;
4122;SDS011;2075;51.062;6.920;2024-01-16T01:27:09;13.40;;;8.20;;
4122;SDS011;2075;51.062;6.920;2024-01-16T01:29:56;15.60;;;8.50;;
4122;SDS011;2075;51.062;6.920;2024-01-16T01:32:42;15.90;;;8.43;;
4122;SDS011;2075;51.062;6.920;2024-01-16T01:35:28;15.90;;;8.50;;
4122;SDS011;2075;51.062;6.920;2024-01-16T01:38:13;15.27;;;7.93;;
4122;SDS011;2075;51.062;6.920;2024-01-16T01:40:58;15.27;;;8.47;;
4122;SDS011;2075;51.062;6.920;2024-01-16T01:43:44;11.73;;;6.80;;
4122;SDS011;2075;51.062;6.920;2024-01-16T01:46:30;13.77;;;7.80;;
4122;SDS011;2075;51.062;6.920;2024-01-16T01:49:17;18.13;;;7.87;;
4122;SDS011;2075;51.062;6.920;2024-01-16T01:52:06;14.63;;;6.20;;
4122;SDS011;2075;51.062;6.920;2024-01-16T01:54:52;23.43;;;7.30;;
4122;SDS011;2075;51.062;6.920;2024-01-16T01:57:37;11.17;;;6.93;;
4122;SDS011;2075;51.062;6.920;2024-01-16T02:00:23;16.53;;;7.50;;
4122;SDS011;2075;51.062;6.920;2024-01-16T02:03:10;13.77;;;7.17;;
4122;SDS011;2075;51.062;6.920;2024-01-16T02:05:56;12.80;;;7.70;;
4122;SDS011;2075;51.062;6.920;2024-01-16T02:08:42;13.60;;;8.33;;
4122;SDS011;2075;51.062;6.920;2024-01-16T02:11:28;14.90;;;7.80;;
4122;SDS011;2075;51.062;6.920;2024-01-16T02:14:13;14.03;;;8.20;;
4122;SDS011;2075;51.062;6.920;2024-01-16T02:16:59;19.70;;;9.97;;
4122;SDS011;2075;51.062;6.920;2024-01-16T02:19:45;15.17;;;8.63;;
4122;SDS011;2075;51.062;6.920;2024-01-16T02:22:31;23.90;;;8.87;;
4122;SDS011;2075;51.062;6.920;2024-01-16T02:25:18;20.70;;;9.20;;
4122;SDS011;2075;51.062;6.920;2024-01-16T02:28:06;14.90;;;8.40;;
4122;SDS011;2075;51.062;6.920;2024-01-16T02:30:51;15.70;;;9.30;;
4122;SDS011;2075;51.062;6.920;2024-01-16T02:33:38;16.70;;;8.80;;
4122;SDS011;2075;51.062;6.920;2024-01-16T02:36:23;15.23;;;8.83;;
4122;SDS011;2075;51.062;6.920;2024-01-16T02:39:09;12.53;;;8.40;;
4122;SDS011;2075;51.062;6.920;2024-01-16T02:41:56;15.87;;;8.83;;
4122;SDS011;2075;51.062;6.920;2024-01-16T02:44:42;25.77;;;9.20;;
4122;SDS011;2075;51.062;6.920;2024-01-16T02:47:27;16.40;;;8.23;;
4122;SDS011;2075;51.062;6.920;2024-01-16T02:50:12;16.30;;;8.67;;
4122;SDS011;2075;51.062;6.920;2024-01-16T02:52:58;16.70;;;9.33;;
4122;SDS011;2075;51.062;6.920;2024-01-16T02:55:43;13.90;;;7.93;;
4122;SDS011;2075;51.062;6.920;2024-01-16T02:58:30;22.40;;;7.70;;
4122;SDS011;2075;51.062;6.920;2024-01-16T03:01:16;17.23;;;7.33;;
4122;SDS011;2075;51.062;6.920;2024-01-16T03:04:01;16.43;;;6.60;;
4122;SDS011;2075;51.062;6.920;2024-01-16T03:06:47;19.63;;;7.97;;
4122;SDS011;2075;51.062;6.920;2024-01-16T03:09:32;16.80;;;7.43;;
4122;SDS011;2075;51.062;6.920;2024-01-16T03:12:18;17.97;;;6.87;;
4122;SDS011;2075;51.062;6.920;2024-01-16T03:15:05;16.60;;;7.90;;
4122;SDS011;2075;51.062;6.920;2024-01-16T03:17:51;10.10;;;6.40;;
4122;SDS011;2075;51.062;6.920;2024-01-16T03:20:36;11.67;;;7.73;;
4122;SDS011;2075;51.062;6.920;2024-01-16T03:23:21;12.83;;;7.00;;
4122;SDS011;2075;51.062;6.920;2024-01-16T03:26:11;12.17;;;7.27;;
4122;SDS011;2075;51.062;6.920;2024-01-16T03:28:57;13.77;;;7.83;;
4122;SDS011;2075;51.062;6.920;2024-01-16T03:31:44;13.43;;;8.00;;
4122;SDS011;2075;51.062;6.920;2024-01-16T03:34:29;14.13;;;7.77;;
4122;SDS011;2075;51.062;6.920;2024-01-16T03:37:15;20.03;;;8.30;;
4122;SDS011;2075;51.062;6.920;2024-01-16T03:40:01;11.80;;;6.70;;
4122;SDS011;2075;51.062;6.920;2024-01-16T03:42:47;11.13;;;7.47;;
4122;SDS011;2075;51.062;6.920;2024-01-16T03:45:32;14.77;;;7.10;;
4122;SDS011;2075;51.062;6.920;2024-01-16T03:48:19;13.07;;;7.00;;
4122;SDS011;2075;51.062;6.920;2024-01-16T03:51:04;13.80;;;7.20;;
4122;SDS011;2075;51.062;6.920;2024-01-16T03:53:50;14.33;;;8.10;;
4122;SDS011;2075;51.062;6.920;2024-01-16T03:56:36;20.93;;;7.37;;
4122;SDS011;2075;51.062;6.920;2024-01-16T03:59:21;20.87;;;8.40;;
4122;SDS011;2075;51.062;6.920;2024-01-16T04:02:07;10.80;;;7.13;;
4122;SDS011;2075;51.062;6.920;2024-01-16T04:04:54;10.93;;;6.40;;
4122;SDS011;2075;51.062;6.920;2024-01-16T04:07:39;12.00;;;7.60;;
4122;SDS011;2075;51.062;6.920;2024-01-16T04:10:25;12.20;;;7.10;;
4122;SDS011;2075;51.062;6.920;2024-01-16T04:13:10;15.07;;;6.90;;
4122;SDS011;2075;51.062;6.920;2024-01-16T04:15:55;14.70;;;6.83;;
4122;SDS011;2075;51.062;6.920;2024-01-16T04:18:41;13.13;;;6.93;;
4122;SDS011;2075;51.062;6.920;2024-01-16T04:21:29;12.53;;;6.50;;
4122;SDS011;2075;51.062;6.920;2024-01-16T04:24:14;11.90;;;7.10;;
4122;SDS011;2075;51.062;6.920;2024-01-16T04:27:01;14.03;;;6.63;;
4122;SDS011;2075;51.062;6.920;2024-01-16T04:29:47;13.93;;;8.30;;
4122;SDS011;2075;51.062;6.920;2024-01-16T04:32:33;13.23;;;8.07;;
4122;SDS011;2075;51.062;6.920;2024-01-16T04:35:18;11.20;;;8.00;;
4122;SDS011;2075;51.062;6.920;2024-01-16T04:38:05;16.40;;;8.43;;
4122;SDS011;2075;51.062;6.920;2024-01-16T04:40:51;13.83;;;8.53;;
4122;SDS011;2075;51.062;6.920;2024-01-16T04:43:39;18.03;;;9.93;;
4122;SDS011;2075;51.062;6.920;2024-01-16T04:46:24;20.40;;;8.90;;
4122;SDS011;2075;51.062;6.920;2024-01-16T04:49:10;12.87;;;7.50;;
4122;SDS011;2075;51.062;6.920;2024-01-16T04:51:56;27.60;;;7.97;;
4122;SDS011;2075;51.062;6.920;2024-01-16T04:54:43;17.93;;;7.93;;
4122;SDS011;2075;51.062;6.920;2024-01-16T04:57:29;15.57;;;7.43;;
4122;SDS011;2075;51.062;6.920;2024-01-16T05:00:15;13.33;;;7.47;;
4122;SDS011;2075;51.062;6.920;2024-01-16T05:03:02;16.47;;;7.87;;
4122;SDS011;2075;51.062;6.920;2024-01-16T05:05:49;14.40;;;7.20;;
4122;SDS011;2075;51.062;6.920;2024-01-16T05:08:34;22.03;;;10.57;;
4122;SDS011;2075;51.062;6.920;2024-01-16T05:11:21;25.73;;;8.30;;
4122;SDS011;2075;51.062;6.920;2024-01-16T05:14:09;15.40;;;7.60;;
4122;SDS011;2075;51.062;6.920;2024-01-16T05:16:54;16.23;;;8.03;;
4122;SDS011;2075;51.062;6.920;2024-01-16T05:19:39;13.83;;;6.87;;
4122;SDS011;2075;51.062;6.920;2024-01-16T05:22:25;12.00;;;6.47;;
4122;SDS011;2075;51.062;6.920;2024-01-16T05:25:10;20.40;;;8.87;;
4122;SDS011;2075;51.062;6.920;2024-01-16T05:27:57;13.53;;;6.73;;
4122;SDS011;2075;51.062;6.920;2024-01-16T05:30:42;14.87;;;7.13;;
4122;SDS011;2075;51.062;6.920;2024-01-16T05:33:28;15.97;;;6.80;;
4122;SDS011;2075;51.062;6.920;2024-01-16T05:36:13;13.13;;;7.20;;
4122;SDS011;2075;51.062;6.920;2024-01-16T05:38:59;14.60;;;5.77;;
4122;SDS011;2075;51.062;6.920;2024-01-16T05:41:45;8.10;;;5.10;;
4122;SDS011;2075;51.062;6.920;2024-01-16T05:44:32;11.27;;;5.67;;
4122;SDS011;2075;51.062;6.920;2024-01-16T05:47:17;11.33;;;6.00;;
4122;SDS011;2075;51.062;6.920;2024-01-16T05:50:05;14.00;;;6.17;;
4122;SDS011;2075;51.062;6.920;2024-01-16T05:52:52;20.50;;;5.87;;
4122;SDS011;2075;51.062;6.920;2024-01-16T05:55:38;15.20;;;5.20;;
4122;SDS011;2075;51.062;6.920;2024-01-16T05:58:23;18.13;;;5.70;;
4122;SDS011;2075;51.062;6.920;2024-01-16T06:01:10;20.53;;;6.00;;
4122;SDS011;2075;51.062;6.920;2024-01-16T06:03:57;7.37;;;4.90;;
4122;SDS011;2075;51.062;6.920;2024-01-16T06:06:42;16.07;;;5.33;;
4122;SDS011;2075;51.062;6.920;2024-01-16T06:09:30;11.53;;;5.10;;
4122;SDS011;2075;51.062;6.920;2024-01-16T06:12:16;10.68;;;5.20;;
4122;SDS011;2075;51.062;6.920;2024-01-16T06:15:02;16.33;;;5.47;;
4122;SDS011;2075;51.062;6.920;2024-01-16T06:17:53;8.17;;;4.67;;
4122;SDS011;2075;51.062;6.920;2024-01-16T06:20:39;11.63;;;4.30;;
4122;SDS011;2075;51.062;6.920;2024-01-16T06:23:24;14.43;;;4.80;;
4122;SDS011;2075;51.062;6.920;2024-01-16T06:26:09;11.47;;;4.40;;
4122;SDS011;2075;51.062;6.920;2024-01-16T06:28:55;9.93;;;5.37;;
4122;SDS011;2075;51.062;6.920;2024-01-16T06:31:40;9.70;;;5.60;;
4122;SDS011;2075;51.062;6.920;2024-01-16T06:34:28;11.30;;;5.00;;
4122;SDS011;2075;51.062;6.920;2024-01-16T06:37:14;13.63;;;5.47;;
4122;SDS011;2075;51.062;6.920;2024-01-16T06:39:59;9.30;;;4.00;;
4122;SDS011;2075;51.062;6.920;2024-01-16T06:42:45;12.00;;;4.37;;
4122;SDS011;2075;51.062;6.920;2024-01-16T06:45:30;9.80;;;4.93;;
4122;SDS011;2075;51.062;6.920;2024-01-16T06:48:16;10.03;;;5.50;;
4122;SDS011;2075;51.062;6.920;2024-01-16T06:51:03;16.08;;;5.00;;
4122;SDS011;2075;51.062;6.920;2024-01-16T06:53:48;13.07;;;4.37;;
4122;SDS011;2075;51.062;6.920;2024-01-16T06:56:34;8.00;;;3.80;;
4122;SDS011;2075;51.062;6.920;2024-01-16T06:59:19;9.07;;;4.87;;
4122;SDS011;2075;51.062;6.920;2024-01-16T07:02:05;9.50;;;4.10;;
4122;SDS011;2075;51.062;6.920;2024-01-16T07:04:51;15.17;;;4.50;;
4122;SDS011;2075;51.062;6.920;2024-01-16T07:07:38;9.40;;;3.87;;
4122;SDS011;2075;51.062;6.920;2024-01-16T07:10:23;10.03;;;4.07;;
4122;SDS011;2075;51.062;6.920;2024-01-16T07:13:09;8.97;;;3.00;;
4122;SDS011;2075;51.062;6.920;2024-01-16T07:15:56;10.77;;;4.20;;
4122;SDS011;2075;51.062;6.920;2024-01-16T07:18:41;7.47;;;3.40;;
4122;SDS011;2075;51.062;6.920;2024-01-16T07:21:27;12.17;;;3.60;;
4122;SDS011;2075;51.062;6.920;2024-01-16T07:24:14;11.37;;;3.90;;
4122;SDS011;2075;51.062;6.920;2024-01-16T07:26:59;12.17;;;4.57;;
4122;SDS011;2075;51.062;6.920;2024-01-16T07:29:45;10.13;;;3.87;;
4122;SDS011;2075;51.062;6.920;2024-01-16T07:32:30;8.03;;;3.50;;
4122;SDS011;2075;51.062;6.920;2024-01-16T07:35:16;8.67;;;3.60;;
4122;SDS011;2075;51.062;6.920;2024-01-16T07:38:02;13.03;;;3.60;;
4122;SDS011;2075;51.062;6.920;2024-01-16T07:40:49;14.20;;;4.20;;
4122;SDS011;2075;51.062;6.920;2024-01-16T07:43:35;8.87;;;3.53;;
4122;SDS011;2075;51.062;6.920;2024-01-16T07:46:20;12.23;;;4.13;;
4122;SDS011;2075;51.062;6.920;2024-01-16T07:49:06;14.53;;;4.80;;
4122;SDS011;2075;51.062;6.920;2024-01-16T07:51:51;13.10;;;3.87;;
4122;SDS011;2075;51.062;6.920;2024-01-16T07:54:36;7.07;;;3.40;;
4122;SDS011;2075;51.062;6.920;2024-01-16T07:57:23;7.00;;;4.13;;
4122;SDS011;2075;51.062;6.920;2024-01-16T08:00:08;8.17;;;4.00;;
4122;SDS011;2075;51.062;6.920;2024-01-16T08:02:55;9.53;;;3.77;;
4122;SDS011;2075;51.062;6.920;2024-01-16T08:05:41;7.60;;;4.30;;
4122;SDS011;2075;51.062;6.920;2024-01-16T08:08:27;23.33;;;5.20;;
4122;SDS011;2075;51.062;6.920;2024-01-16T08:11:12;13.80;;;5.37;;
4122;SDS011;2075;51.062;6.920;2024-01-16T08:13:59;11.57;;;6.03;;
4122;SDS011;2075;51.062;6.920;2024-01-16T08:16:45;11.73;;;6.40;;
4122;SDS011;2075;51.062;6.920;2024-01-16T08:19:31;17.40;;;7.13;;
4122;SDS011;2075;51.062;6.920;2024-01-16T08:22:17;23.87;;;7.53;;
4122;SDS011;2075;51.062;6.920;2024-01-16T08:25:03;17.00;;;6.70;;
4122;SDS011;2075;51.062;6.920;2024-01-16T08:27:50;19.08;;;6.15;;
4122;SDS011;2075;51.062;6.920;2024-01-16T08:30:36;12.83;;;6.37;;
4122;SDS011;2075;51.062;6.920;2024-01-16T08:33:22;11.83;;;5.53;;
4122;SDS011;2075;51.062;6.920;2024-01-16T08:36:08;13.20;;;5.45;;
4122;SDS011;2075;51.062;6.920;2024-01-16T08:38:54;26.03;;;5.83;;
4122;SDS011;2075;51.062;6.920;2024-01-16T08:41:40;14.00;;;5.80;;
4122;SDS011;2075;51.062;6.920;2024-01-16T08:44:25;11.07;;;5.10;;
4122;SDS011;2075;51.062;6.920;2024-01-16T08:47:12;10.83;;;4.70;;
4122;SDS011;2075;51.062;6.920;2024-01-16T08:49:57;8.80;;;4.20;;
4122;SDS011;2075;51.062;6.920;2024-01-16T08:52:43;15.07;;;4.20;;
4122;SDS011;2075;51.062;6.920;2024-01-16T08:55:29;10.40;;;5.10;;
4122;SDS011;2075;51.062;6.920;2024-01-16T08:58:15;8.65;;;4.30;;
4122;SDS011;2075;51.062;6.920;2024-01-16T09:01:01;10.70;;;4.50;;
4122;SDS011;2075;51.062;6.920;2024-01-16T09:03:49;14.57;;;4.07;;
4122;SDS011;2075;51.062;6.920;2024-01-16T09:06:35;9.50;;;3.93;;
4122;SDS011;2075;51.062;6.920;2024-01-16T09:09:20;11.43;;;4.23;;
4122;SDS011;2075;51.062;6.920;2024-01-16T09:12:06;14.27;;;4.97;;
4122;SDS011;2075;51.062;6.920;2024-01-16T09:14:52;11.03;;;5.07;;
4122;SDS011;2075;51.062;6.920;2024-01-16T09:17:38;11.17;;;4.90;;
4122;SDS011;2075;51.062;6.920;2024-01-16T09:20:25;11.52;;;5.13;;
4122;SDS011;2075;51.062;6.920;2024-01-16T09:23:11;7.93;;;3.87;;
4122;SDS011;2075;51.062;6.920;2024-01-16T09:25:57;14.45;;;5.65;;
4122;SDS011;2075;51.062;6.920;2024-01-16T09:28:43;13.80;;;4.60;;
4122;SDS011;2075;51.062;6.920;2024-01-16T09:31:29;9.83;;;3.30;;
4122;SDS011;2075;51.062;6.920;2024-01-16T09:34:15;13.73;;;4.80;;
4122;SDS011;2075;51.062;6.920;2024-01-16T09:37:02;7.90;;;4.40;;
4122;SDS011;2075;51.062;6.920;2024-01-16T09:39:48;7.90;;;4.50;;
4122;SDS011;2075;51.062;6.920;2024-01-16T09:42:35;6.67;;;4.47;;
4122;SDS011;2075;51.062;6.920;2024-01-16T09:45:21;7.83;;;5.40;;
4122;SDS011;2075;51.062;6.920;2024-01-16T09:48:07;11.70;;;5.90;;
4122;SDS011;2075;51.062;6.920;2024-01-16T09:50:54;14.20;;;6.60;;
4122;SDS011;2075;51.062;6.920;2024-01-16T09:53:41;11.88;;;5.25;;
4122;SDS011;2075;51.062;6.920;2024-01-16T09:56:27;7.00;;;3.90;;
4122;SDS011;2075;51.062;6.920;2024-01-16T09:59:16;6.03;;;3.17;;
4122;SDS011;2075;51.062;6.920;2024-01-16T10:02:03;8.53;;;3.93;;
4122;SDS011;2075;51.062;6.920;2024-01-16T10:04:51;13.83;;;3.90;;
4122;SDS011;2075;51.062;6.920;2024-01-16T10:07:37;9.03;;;4.73;;
4122;SDS011;2075;51.062;6.920;2024-01-16T10:10:27;5.37;;;3.80;;
4122;SDS011;2075;51.062;6.920;2024-01-16T10:13:14;8.13;;;4.27;;
4122;SDS011;2075;51.062;6.920;2024-01-16T10:16:00;13.50;;;4.23;;
4122;SDS011;2075;51.062;6.920;2024-01-16T10:18:47;9.77;;;4.60;;
4122;SDS011;2075;51.062;6.920;2024-01-16T10:21:34;11.53;;;3.97;;
4122;SDS011;2075;51.062;6.920;2024-01-16T10:24:20;11.53;;;3.83;;
4122;SDS011;2075;51.062;6.920;2024-01-16T10:27:07;6.40;;;3.77;;
4122;SDS011;2075;51.062;6.920;2024-01-16T10:29:55;7.20;;;3.77;;
4122;SDS011;2075;51.062;6.920;2024-01-16T10:32:43;7.80;;;4.23;;
4122;SDS011;2075;51.062;6.920;2024-01-16T10:35:29;12.70;;;5.67;;
4122;SDS011;2075;51.062;6.920;2024-01-16T10:38:19;17.30;;;4.47;;
4122;SDS011;2075;51.062;6.920;2024-01-16T10:41:09;10.73;;;4.70;;
4122;SDS011;2075;51.062;6.920;2024-01-16T10:44:04;12.77;;;4.17;;
4122;SDS011;2075;51.062;6.920;2024-01-16T10:46:51;8.00;;;4.30;;
4122;SDS011;2075;51.062;6.920;2024-01-16T10:49:36;11.02;;;4.80;;
4122;SDS011;2075;51.062;6.920;2024-01-16T10:52:23;10.53;;;4.70;;
4122;SDS011;2075;51.062;6.920;2024-01-16T10:55:14;11.03;;;4.60;;
4122;SDS011;2075;51.062;6.920;2024-01-16T10:58:05;11.73;;;4.23;;
4122;SDS011;2075;51.062;6.920;2024-01-16T11:01:01;9.23;;;4.00;;
4122;SDS011;2075;51.062;6.920;2024-01-16T11:03:49;5.87;;;3.70;;
4122;SDS011;2075;51.062;6.920;2024-01-16T11:06:36;11.48;;;5.30;;
4122;SDS011;2075;51.062;6.920;2024-01-16T11:09:22;9.70;;;4.83;;
4122;SDS011;2075;51.062;6.920;2024-01-16T11:12:09;12.77;;;5.17;;
4122;SDS011;2075;51.062;6.920;2024-01-16T11:15:00;5.00;;;3.70;;
4122;SDS011;2075;51.062;6.920;2024-01-16T11:17:53;8.63;;;3.57;;
4122;SDS011;2075;51.062;6.920;2024-01-16T11:20:39;15.87;;;3.97;;
4122;SDS011;2075;51.062;6.920;2024-01-16T11:23:26;8.63;;;4.20;;
4122;SDS011;2075;51.062;6.920;2024-01-16T11:29:35;9.23;;;4.37;;
4122;SDS011;2075;51.062;6.920;2024-01-16T11:32:32;9.30;;;4.50;;
4122;SDS011;2075;51.062;6.920;2024-01-16T11:35:20;11.00;;;4.90;;
4122;SDS011;2075;51.062;6.920;2024-01-16T11:38:17;13.70;;;5.10;;
4122;SDS011;2075;51.062;6.920;2024-01-16T11:41:05;13.13;;;5.50;;
4122;SDS011;2075;51.062;6.920;2024-01-16T11:43:50;14.40;;;6.33;;
4122;SDS011;2075;51.062;6.920;2024-01-16T11:49:46;14.97;;;6.20;;
4122;SDS011;2075;51.062;6.920;2024-01-16T11:52:43;10.97;;;5.20;;
4122;SDS011;2075;51.062;6.920;2024-01-16T11:55:31;13.17;;;4.47;;
4122;SDS011;2075;51.062;6.920;2024-01-16T11:58:26;10.80;;;5.00;;
4122;SDS011;2075;51.062;6.920;2024-01-16T12:01:28;8.17;;;4.53;;
4122;SDS011;2075;51.062;6.920;2024-01-16T12:04:14;9.67;;;4.70;;
4122;SDS011;2075;51.062;6.920;2024-01-16T12:07:03;8.57;;;4.80;;
4122;SDS011;2075;51.062;6.920;2024-01-16T12:09:51;12.63;;;5.10;;
4122;SDS011;2075;51.062;6.920;2024-01-16T12:12:36;10.27;;;4.60;;
4122;SDS011;2075;51.062;6.920;2024-01-16T12:15:23;9.77;;;5.87;;
4122;SDS011;2075;51.062;6.920;2024-01-16T12:18:17;21.03;;;9.20;;
4122;SDS011;2075;51.062;6.920;2024-01-16T12:21:07;15.87;;;6.63;;
4122;SDS011;2075;51.062;6.920;2024-01-16T12:23:54;13.93;;;6.47;;
4122;SDS011;2075;51.062;6.920;2024-01-16T12:26:42;16.37;;;5.43;;
4122;SDS011;2075;51.062;6.920;2024-01-16T12:29:28;14.60;;;5.10;;
4122;SDS011;2075;51.062;6.920;2024-01-16T12:32:14;6.80;;;5.00;;
4122;SDS011;2075;51.062;6.920;2024-01-16T12:35:00;11.17;;;5.03;;
4122;SDS011;2075;51.062;6.920;2024-01-16T12:37:57;10.83;;;3.80;;
4122;SDS011;2075;51.062;6.920;2024-01-16T12:40:44;8.70;;;4.60;;
4122;SDS011;2075;51.062;6.920;2024-01-16T12:43:34;10.50;;;4.63;;
4122;SDS011;2075;51.062;6.920;2024-01-16T12:46:21;12.53;;;5.30;;
4122;SDS011;2075;51.062;6.920;2024-01-16T12:49:07;11.20;;;4.80;;
4122;SDS011;2075;51.062;6.920;2024-01-16T12:55:05;6.73;;;4.40;;
4122;SDS011;2075;51.062;6.920;2024-01-16T13:04:11;11.13;;;4.47;;
4122;SDS011;2075;51.062;6.920;2024-01-16T13:07:00;12.93;;;5.77;;
4122;SDS011;2075;51.062;6.920;2024-01-16T13:09:47;13.60;;;4.97;;
4122;SDS011;2075;51.062;6.920;2024-01-16T13:12:32;11.07;;;5.20;;
4122;SDS011;2075;51.062;6.920;2024-01-16T13:15:18;5.93;;;4.10;;
4122;SDS011;2075;51.062;6.920;2024-01-16T13:18:06;6.23;;;3.87;;
4122;SDS011;2075;51.062;6.920;2024-01-16T13:21:02;10.40;;;4.03;;
4122;SDS011;2075;51.062;6.920;2024-01-16T13:23:48;11.23;;;3.93;;
4122;SDS011;2075;51.062;6.920;2024-01-16T13:26:34;9.00;;;4.10;;
4122;SDS011;2075;51.062;6.920;2024-01-16T13:29:20;14.93;;;5.30;;
4122;SDS011;2075;51.062;6.920;2024-01-16T13:32:06;8.63;;;4.73;;
4122;SDS011;2075;51.062;6.920;2024-01-16T13:34:53;10.53;;;5.33;;
4122;SDS011;2075;51.062;6.920;2024-01-16T13:37:39;9.50;;;4.40;;
4122;SDS011;2075;51.062;6.920;2024-01-16T13:40:24;22.63;;;4.10;;
4122;SDS011;2075;51.062;6.920;2024-01-16T13:43:10;5.73;;;3.63;;
4122;SDS011;2075;51.062;6.920;2024-01-16T13:45:56;8.43;;;4.10;;
4122;SDS011;2075;51.062;6.920;2024-01-16T13:48:43;8.90;;;4.40;;
4122;SDS011;2075;51.062;6.920;2024-01-16T13:51:30;7.73;;;4.27;;
4122;SDS011;2075;51.062;6.920;2024-01-16T13:54:15;8.17;;;4.57;;
4122;SDS011;2075;51.062;6.920;2024-01-16T13:57:02;15.63;;;4.90;;
4122;SDS011;2075;51.062;6.920;2024-01-16T13:59:49;13.30;;;4.40;;
4122;SDS011;2075;51.062;6.920;2024-01-16T14:02:34;18.90;;;4.53;;
4122;SDS011;2075;51.062;6.920;2024-01-16T14:05:22;4.47;;;4.07;;
4122;SDS011;2075;51.062;6.920;2024-01-16T14:08:11;6.97;;;3.97;;
4122;SDS011;2075;51.062;6.920;2024-01-16T14:10:57;6.77;;;3.83;;
4122;SDS011;2075;51.062;6.920;2024-01-16T14:13:42;12.53;;;4.03;;
4122;SDS011;2075;51.062;6.920;2024-01-16T14:16:28;11.70;;;4.80;;
4122;SDS011;2075;51.062;6.920;2024-01-16T14:19:14;14.17;;;6.13;;
4122;SDS011;2075;51.062;6.920;2024-01-16T14:22:00;11.20;;;5.53;;
4122;SDS011;2075;51.062;6.920;2024-01-16T14:24:47;13.53;;;6.40;;
4122;SDS011;2075;51.062;6.920;2024-01-16T14:27:35;14.70;;;8.63;;
4122;SDS011;2075;51.062;6.920;2024-01-16T14:30:21;14.40;;;6.43;;
4122;SDS011;2075;51.062;6.920;2024-01-16T14:33:09;10.30;;;5.60;;
4122;SDS011;2075;51.062;6.920;2024-01-16T14:35:56;13.70;;;4.77;;
4122;SDS011;2075;51.062;6.920;2024-01-16T14:38:42;8.83;;;4.70;;
4122;SDS011;2075;51.062;6.920;2024-01-16T14:41:30;7.33;;;4.50;;
4122;SDS011;2075;51.062;6.920;2024-01-16T14:44:16;7.63;;;4.50;;
4122;SDS011;2075;51.062;6.920;2024-01-16T14:47:02;9.03;;;4.40;;
4122;SDS011;2075;51.062;6.920;2024-01-16T14:49:48;15.00;;;5.40;;
4122;SDS011;2075;51.062;6.920;2024-01-16T14:52:33;9.87;;;5.10;;
4122;SDS011;2075;51.062;6.920;2024-01-16T14:55:19;9.30;;;5.57;;
4122;SDS011;2075;51.062;6.920;2024-01-16T14:58:08;11.13;;;5.83;;
4122;SDS011;2075;51.062;6.920;2024-01-16T15:00:54;6.83;;;4.97;;
4122;SDS011;2075;51.062;6.920;2024-01-16T15:03:40;11.00;;;5.20;;
4122;SDS011;2075;51.062;6.920;2024-01-16T15:06:26;11.00;;;5.25;;
4122;SDS011;2075;51.062;6.920;2024-01-16T15:09:13;12.07;;;5.37;;
4122;SDS011;2075;51.062;6.920;2024-01-16T15:11:58;13.27;;;5.90;;
4122;SDS011;2075;51.062;6.920;2024-01-16T15:14:46;11.23;;;4.77;;
4122;SDS011;2075;51.062;6.920;2024-01-16T15:17:31;12.98;;;5.50;;
4122;SDS011;2075;51.062;6.920;2024-01-16T15:20:17;12.33;;;5.43;;
4122;SDS011;2075;51.062;6.920;2024-01-16T15:23:04;9.30;;;5.67;;
4122;SDS011;2075;51.062;6.920;2024-01-16T15:25:50;9.03;;;5.03;;
4122;SDS011;2075;51.062;6.920;2024-01-16T15:28:36;10.33;;;5.63;;
4122;SDS011;2075;51.062;6.920;2024-01-16T15:31:25;12.10;;;5.60;;
4122;SDS011;2075;51.062;6.920;2024-01-16T15:34:11;11.90;;;6.63;;
4122;SDS011;2075;51.062;6.920;2024-01-16T15:36:57;12.00;;;5.90;;
4122;SDS011;2075;51.062;6.920;2024-01-16T15:39:44;16.70;;;7.63;;
4122;SDS011;2075;51.062;6.920;2024-01-16T15:42:30;14.60;;;7.37;;
4122;SDS011;2075;51.062;6.920;2024-01-16T15:45:15;17.13;;;6.67;;
4122;SDS011;2075;51.062;6.920;2024-01-16T15:48:04;8.37;;;5.23;;
4122;SDS011;2075;51.062;6.920;2024-01-16T15:50:52;16.03;;;6.03;;
4122;SDS011;2075;51.062;6.920;2024-01-16T15:53:37;18.17;;;6.10;;
4122;SDS011;2075;51.062;6.920;2024-01-16T15:56:22;8.53;;;4.63;;
4122;SDS011;2075;51.062;6.920;2024-01-16T15:59:11;14.83;;;5.53;;
4122;SDS011;2075;51.062;6.920;2024-01-16T16:01:56;12.63;;;5.70;;
4122;SDS011;2075;51.062;6.920;2024-01-16T16:04:43;9.00;;;5.60;;
4122;SDS011;2075;51.062;6.920;2024-01-16T16:07:29;13.10;;;4.83;;
4122;SDS011;2075;51.062;6.920;2024-01-16T16:10:15;15.70;;;5.83;;
4122;SDS011;2075;51.062;6.920;2024-01-16T16:13:01;9.60;;;5.23;;
4122;SDS011;2075;51.062;6.920;2024-01-16T16:15:49;13.07;;;5.63;;
4122;SDS011;2075;51.062;6.920;2024-01-16T16:18:35;8.00;;;5.90;;
4122;SDS011;2075;51.062;6.920;2024-01-16T16:21:22;12.87;;;6.30;;
4122;SDS011;2075;51.062;6.920;2024-01-16T16:24:08;11.00;;;6.17;;
4122;SDS011;2075;51.062;6.920;2024-01-16T16:26:54;11.07;;;5.20;;
4122;SDS011;2075;51.062;6.920;2024-01-16T16:29:40;17.70;;;5.53;;
4122;SDS011;2075;51.062;6.920;2024-01-16T16:32:26;13.00;;;6.70;;
4122;SDS011;2075;51.062;6.920;2024-01-16T16:35:11;13.13;;;7.43;;
4122;SDS011;2075;51.062;6.920;2024-01-16T16:37:58;14.83;;;6.83;;
4122;SDS011;2075;51.062;6.920;2024-01-16T16:40:44;14.97;;;6.20;;
4122;SDS011;2075;51.062;6.920;2024-01-16T16:43:31;11.33;;;6.00;;
4122;SDS011;2075;51.062;6.920;2024-01-16T16:46:17;11.13;;;6.00;;
4122;SDS011;2075;51.062;6.920;2024-01-16T16:49:03;8.47;;;5.47;;
4122;SDS011;2075;51.062;6.920;2024-01-16T16:51:48;9.80;;;5.50;;
4122;SDS011;2075;51.062;6.920;2024-01-16T16:54:35;9.60;;;5.50;;
4122;SDS011;2075;51.062;6.920;2024-01-16T16:57:21;15.90;;;6.57;;
4122;SDS011;2075;51.062;6.920;2024-01-16T17:00:07;12.10;;;5.70;;
4122;SDS011;2075;51.062;6.920;2024-01-16T17:02:56;17.13;;;7.27;;
4122;SDS011;2075;51.062;6.920;2024-01-16T17:05:42;18.93;;;7.20;;
4122;SDS011;2075;51.062;6.920;2024-01-16T17:08:27;17.77;;;6.77;;
4122;SDS011;2075;51.062;6.920;2024-01-16T17:11:16;13.33;;;6.20;;
4122;SDS011;2075;51.062;6.920;2024-01-16T17:14:01;24.53;;;7.03;;
4122;SDS011;2075;51.062;6.920;2024-01-16T17:16:47;13.40;;;6.80;;
4122;SDS011;2075;51.062;6.920;2024-01-16T17:19:33;20.97;;;6.90;;